Time;durP1;ratioP1;P1;durP2;ratioP2;P2;SDS_P1;SDS_P2;PMS_P1;PMS_P2;Temp;Humidity;BMP_temperature;BMP_pressure;BME280_temperature;BME280_humidity;BME280_pressure;Samples;Min_cycle;Max_cycle;Signal;HPM_P1;HPM_P2
2023/10/22 00:02:10;;;;;;;13.05;2.55;;;486.50;2380.80;;;;;;5098579;28;20016;-75
2023/10/22 00:04:38;;;;;;;13.77;2.83;;;486.50;2380.80;;;;;;5092473;28;20118;-75
2023/10/22 00:07:05;;;;;;;8.05;2.25;;;486.50;2380.80;;;;;;5083024;28;20020;-75
2023/10/22 00:09:30;;;;;;;10.00;2.13;;;486.50;2380.80;;;;;;5095749;28;20024;-75
2023/10/22 00:11:56;;;;;;;4.85;2.13;;;486.50;2380.80;;;;;;5077535;28;20035;-74
2023/10/22 00:14:22;;;;;;;9.45;2.85;;;486.50;2380.80;;;;;;5095076;28;20536;-75
2023/10/22 00:16:47;;;;;;;5.82;2.40;;;486.50;2380.80;;;;;;5095692;28;20020;-75
2023/10/22 00:19:13;;;;;;;9.07;2.78;;;486.50;2380.80;;;;;;5095336;28;20099;-76
2023/10/22 00:21:39;;;;;;;7.60;2.25;;;486.40;2380.80;;;;;;5095464;28;20026;-76
2023/10/22 00:24:05;;;;;;;8.52;2.28;;;461.70;2380.80;;;;;;5095210;28;20040;-75
2023/10/22 00:26:31;;;;;;;5.43;2.50;;;461.70;2380.80;;;;;;5081226;28;20069;-76
2023/10/22 00:28:56;;;;;;;5.40;2.22;;;461.60;2380.80;;;;;;5095337;28;20494;-75
2023/10/22 00:31:22;;;;;;;9.30;2.50;;;461.60;2380.80;;;;;;5095498;28;20022;-75
2023/10/22 00:33:48;;;;;;;4.43;2.10;;;461.60;2380.80;;;;;;5095201;28;20461;-75
2023/10/22 00:36:13;;;;;;;7.88;2.95;;;461.60;2380.80;;;;;;5089785;28;20123;-75
2023/10/22 00:38:39;;;;;;;9.90;2.53;;;461.60;2380.80;;;;;;5081660;28;20031;-75
2023/10/22 00:41:05;;;;;;;8.02;3.00;;;461.70;2380.80;;;;;;5095360;28;20016;-75
2023/10/22 00:43:31;;;;;;;7.47;2.95;;;461.70;2380.80;;;;;;5068938;28;20432;-75
2023/10/22 00:45:57;;;;;;;7.25;2.35;;;461.70;2380.80;;;;;;5095056;28;20039;-75
2023/10/22 00:48:24;;;;;;;5.85;2.70;;;461.60;2380.80;;;;;;5094941;28;20104;-75
2023/10/22 00:50:50;;;;;;;9.60;2.53;;;461.60;2380.80;;;;;;5076037;28;20028;-75
2023/10/22 00:53:17;;;;;;;12.32;4.57;;;461.50;2380.80;;;;;;5108817;28;20569;-75
2023/10/22 00:55:47;;;;;;;8.80;2.47;;;461.50;2380.80;;;;;;5114969;28;20020;-75
2023/10/22 00:58:16;;;;;;;7.28;1.92;;;461.40;2380.80;;;;;;5101320;28;20028;-75
2023/10/22 01:00:43;;;;;;;5.00;2.38;;;461.40;2380.80;;;;;;5088248;28;20500;-75
2023/10/22 01:03:08;;;;;;;8.70;2.70;;;461.40;2380.80;;;;;;5108011;28;20481;-75
2023/10/22 01:05:39;;;;;;;11.68;2.75;;;461.30;2380.80;;;;;;5094824;28;20036;-75
2023/10/22 01:08:05;;;;;;;7.93;2.83;;;461.30;2380.80;;;;;;5109912;28;20022;-75
2023/10/22 01:10:32;;;;;;;8.65;3.25;;;461.30;2380.80;;;;;;5115066;28;20058;-75
2023/10/22 01:13:01;;;;;;;8.57;2.13;;;461.20;2380.80;;;;;;5112031;28;20027;-75
2023/10/22 01:15:27;;;;;;;10.13;2.85;;;461.10;2380.80;;;;;;5094481;28;20161;-75
2023/10/22 01:17:53;;;;;;;9.40;2.85;;;461.20;2380.80;;;;;;5097401;28;20405;-75
2023/10/22 01:20:19;;;;;;;7.68;2.40;;;461.20;2380.80;;;;;;5104783;28;20126;-75
2023/10/22 01:22:45;;;;;;;9.40;2.47;;;461.20;2380.80;;;;;;5075593;28;20039;-75
2023/10/22 01:25:11;;;;;;;15.05;3.08;;;461.20;2380.80;;;;;;5103846;28;20122;-74
2023/10/22 01:27:37;;;;;;;6.45;2.67;;;461.20;2380.80;;;;;;5114511;28;20026;-75
2023/10/22 01:30:03;;;;;;;5.80;2.50;;;461.10;2380.80;;;;;;5104477;28;20122;-75
2023/10/22 01:32:33;;;;;;;6.85;2.50;;;461.10;2380.80;;;;;;5107430;28;20052;-75
2023/10/22 01:35:00;;;;;;;6.43;2.45;;;461.10;2380.80;;;;;;5104850;28;20488;-75
2023/10/22 01:37:26;;;;;;;12.88;2.30;;;461.10;2380.80;;;;;;5114337;28;20072;-75
2023/10/22 01:39:52;;;;;;;10.10;2.88;;;461.00;2380.80;;;;;;5105674;28;20020;-75
2023/10/22 01:42:18;;;;;;;8.68;2.47;;;461.00;2380.80;;;;;;5110048;28;20023;-75
2023/10/22 01:44:44;;;;;;;14.68;2.97;;;460.90;2380.80;;;;;;5104679;28;20028;-75
2023/10/22 01:47:12;;;;;;;6.32;2.30;;;460.90;2380.80;;;;;;5096449;28;20508;-75
2023/10/22 01:49:39;;;;;;;6.50;2.00;;;460.80;2380.80;;;;;;5093760;28;20442;-75
2023/10/22 01:52:05;;;;;;;6.97;2.03;;;460.80;2380.80;;;;;;5110993;28;20036;-75
2023/10/22 01:54:30;;;;;;;7.60;2.70;;;460.80;2380.80;;;;;;5113775;28;20034;-76
2023/10/22 01:56:56;;;;;;;5.68;1.98;;;436.10;2355.20;;;;;;5099900;28;20094;-75
2023/10/22 01:59:22;;;;;;;7.68;2.50;;;436.10;2355.20;;;;;;5095893;28;20019;-75
2023/10/22 02:01:48;;;;;;;10.23;2.95;;;460.80;2380.80;;;;;;5096052;28;20020;-75
2023/10/22 02:04:14;;;;;;;8.13;2.30;;;460.80;2380.80;;;;;;5093707;28;20082;-75
2023/10/22 02:06:39;;;;;;;6.80;1.90;;;460.80;2380.80;;;;;;5110608;28;20476;-75
2023/10/22 02:09:05;;;;;;;8.07;2.00;;;436.10;2355.20;;;;;;5103063;28;20484;-75
2023/10/22 02:11:31;;;;;;;6.95;2.35;;;436.10;2355.20;;;;;;5092599;28;20371;-75
2023/10/22 02:13:58;;;;;;;8.13;1.75;;;436.10;2355.20;;;;;;5102986;28;20392;-75
2023/10/22 02:16:24;;;;;;;4.65;1.88;;;436.10;2355.20;;;;;;5097429;28;20012;-75
2023/10/22 02:18:50;;;;;;;8.13;2.00;;;436.10;2355.20;;;;;;5102651;28;20027;-75
2023/10/22 02:21:16;;;;;;;8.07;2.45;;;436.10;2355.20;;;;;;5096726;28;20069;-75
2023/10/22 02:23:42;;;;;;;5.10;1.85;;;436.10;2355.20;;;;;;5095322;28;20496;-75
2023/10/22 02:26:08;;;;;;;6.20;1.60;;;436.10;2355.20;;;;;;5100024;28;20024;-75
2023/10/22 02:28:34;;;;;;;7.95;1.90;;;436.10;2355.20;;;;;;5113626;28;20027;-75
2023/10/22 02:30:59;;;;;;;5.97;1.80;;;436.10;2355.20;;;;;;5099811;28;20020;-74
2023/10/22 02:33:25;;;;;;;7.68;1.70;;;436.10;2355.20;;;;;;5113024;28;20103;-75
2023/10/22 02:35:51;;;;;;;7.90;1.52;;;436.10;2355.20;;;;;;5104409;28;20024;-75
2023/10/22 02:38:18;;;;;;;7.53;2.00;;;436.10;2355.20;;;;;;5095422;28;20028;-75
2023/10/22 02:40:48;;;;;;;8.00;2.25;;;436.10;2355.20;;;;;;5099386;28;20550;-75
2023/10/22 02:43:15;;;;;;;6.15;1.75;;;436.10;2355.20;;;;;;5113600;28;20058;-75
2023/10/22 02:45:54;;;;;;;7.00;1.75;;;436.00;2355.20;;;;;;5107872;28;20032;-75
2023/10/22 02:48:20;;;;;;;10.20;3.70;;;436.00;2355.20;;;;;;5096742;28;20024;-75
2023/10/22 02:50:46;;;;;;;5.53;2.10;;;435.90;2355.20;;;;;;5115295;28;20473;-75
2023/10/22 02:53:13;;;;;;;10.65;1.52;;;435.90;2355.20;;;;;;5113886;28;20052;-75
2023/10/22 02:55:39;;;;;;;5.00;1.33;;;435.80;2355.20;;;;;;5106629;28;20017;-75
2023/10/22 02:58:05;;;;;;;4.43;1.73;;;435.80;2355.20;;;;;;5088256;28;20090;-75
2023/10/22 03:00:33;;;;;;;8.55;2.00;;;435.80;2355.20;;;;;;5079584;28;20024;-75
2023/10/22 03:02:58;;;;;;;9.63;1.60;;;435.80;2355.20;;;;;;5105985;28;20380;-75
2023/10/22 03:05:24;;;;;;;4.70;1.25;;;435.80;2355.20;;;;;;5100094;28;20079;-75
2023/10/22 03:07:50;;;;;;;7.05;2.35;;;435.80;2355.20;;;;;;5113067;28;20023;-75
2023/10/22 03:10:16;;;;;;;6.35;2.13;;;435.80;2355.20;;;;;;5113350;28;20027;-75
2023/10/22 03:12:42;;;;;;;6.53;1.40;;;435.80;2355.20;;;;;;5112682;28;20185;-75
2023/10/22 03:15:09;;;;;;;4.35;1.63;;;435.80;2355.20;;;;;;5100286;28;20524;-76
2023/10/22 03:17:36;;;;;;;10.30;2.17;;;435.80;2355.20;;;;;;5112119;28;20107;-75
2023/10/22 03:20:03;;;;;;;6.32;1.67;;;435.90;2355.20;;;;;;5096576;28;20020;-75
2023/10/22 03:22:30;;;;;;;6.05;2.10;;;435.90;2355.20;;;;;;5111323;28;20023;-75
2023/10/22 03:24:56;;;;;;;4.45;2.22;;;435.90;2355.20;;;;;;5108569;28;20036;-76
2023/10/22 03:27:21;;;;;;;11.43;4.93;;;435.90;2355.20;;;;;;5091604;28;20081;-76
2023/10/22 03:29:47;;;;;;;10.43;6.70;;;436.00;2355.20;;;;;;5105121;28;20027;-75
2023/10/22 03:32:13;;;;;;;13.82;9.02;;;435.90;2355.20;;;;;;5103030;28;20024;-75
2023/10/22 03:34:39;;;;;;;18.98;11.50;;;436.00;2355.20;;;;;;5108496;28;20099;-75
2023/10/22 03:37:04;;;;;;;17.33;11.70;;;436.00;2355.20;;;;;;5098123;28;20505;-75
2023/10/22 03:39:31;;;;;;;18.65;11.63;;;436.10;2355.20;;;;;;5116395;28;20024;-75
2023/10/22 03:41:57;;;;;;;17.55;10.35;;;436.10;2355.20;;;;;;5082245;28;20032;-75
2023/10/22 03:44:23;;;;;;;14.48;9.05;;;436.10;2355.20;;;;;;5105035;28;20389;-75
2023/10/22 03:46:49;;;;;;;12.63;8.88;;;436.00;2355.20;;;;;;5086489;28;20024;-75
2023/10/22 03:49:15;;;;;;;16.17;10.43;;;436.00;2355.20;;;;;;5096044;28;20486;-75
2023/10/22 03:51:40;;;;;;;14.13;9.45;;;436.00;2355.20;;;;;;5094202;28;20032;-75
2023/10/22 03:54:06;;;;;;;15.07;9.93;;;435.90;2355.20;;;;;;5083984;28;20039;-75
2023/10/22 03:56:34;;;;;;;20.73;10.05;;;435.90;2355.20;;;;;;5098000;28;20020;-75
2023/10/22 03:59:00;;;;;;;16.35;9.68;;;435.80;2355.20;;;;;;5108455;28;20016;-75
2023/10/22 04:01:26;;;;;;;17.92;10.15;;;435.70;2355.20;;;;;;5082133;28;20063;-75
2023/10/22 04:03:52;;;;;;;16.13;9.15;;;435.60;2355.20;;;;;;5103584;28;20526;-75
2023/10/22 04:06:18;;;;;;;15.63;8.40;;;435.60;2355.20;;;;;;5097573;28;20031;-75
2023/10/22 04:08:44;;;;;;;12.48;6.95;;;435.50;2355.20;;;;;;5116110;28;20046;-75
2023/10/22 04:11:10;;;;;;;12.27;5.53;;;435.60;2355.20;;;;;;5114639;28;20026;-75
2023/10/22 04:13:36;;;;;;;12.02;4.68;;;435.50;2355.20;;;;;;5103521;28;20106;-76
2023/10/22 04:16:03;;;;;;;9.18;3.88;;;435.50;2355.20;;;;;;5115912;28;20023;-75
2023/10/22 04:18:29;;;;;;;10.13;3.50;;;435.50;2355.20;;;;;;5116065;28;20016;-76
2023/10/22 04:20:54;;;;;;;4.97;3.00;;;435.50;2355.20;;;;;;5115687;28;20156;-75
2023/10/22 04:23:21;;;;;;;5.88;2.80;;;435.50;2355.20;;;;;;5107383;28;20503;-75
2023/10/22 04:25:47;;;;;;;12.82;3.35;;;435.50;2355.20;;;;;;5095086;28;20020;-75
2023/10/22 04:28:14;;;;;;;5.75;2.47;;;435.50;2355.20;;;;;;5104105;28;20495;-75
2023/10/22 04:30:40;;;;;;;9.55;2.90;;;435.40;2355.20;;;;;;5112982;28;20028;-75
2023/10/22 04:33:08;;;;;;;11.75;2.08;;;435.30;2355.20;;;;;;5086767;28;20021;-75
2023/10/22 04:35:35;;;;;;;6.90;2.60;;;435.30;2355.20;;;;;;5074221;28;20039;-75
2023/10/22 04:38:02;;;;;;;5.60;2.28;;;435.30;2355.20;;;;;;5106222;28;20044;-75
2023/10/22 04:40:36;;;;;;;5.90;1.95;;;435.20;2355.20;;;;;;5097066;28;20020;-75
2023/10/22 04:43:02;;;;;;;3.78;1.65;;;410.50;2355.20;;;;;;5115313;28;20023;-75
2023/10/22 04:45:28;;;;;;;8.63;2.28;;;410.50;2355.20;;;;;;5086626;28;20118;-75
2023/10/22 04:47:55;;;;;;;5.32;1.88;;;410.50;2355.20;;;;;;5085425;28;20095;-75
2023/10/22 04:50:21;;;;;;;8.30;1.80;;;410.50;2355.20;;;;;;5083892;28;20023;-75
2023/10/22 04:52:47;;;;;;;9.25;2.53;;;410.50;2355.20;;;;;;5084427;28;20036;-75
2023/10/22 04:55:13;;;;;;;5.65;1.77;;;435.20;2355.20;;;;;;5095655;28;20430;-75
2023/10/22 04:57:39;;;;;;;5.35;1.67;;;435.20;2355.20;;;;;;5079351;28;20067;-75
2023/10/22 05:00:07;;;;;;;4.85;1.58;;;435.30;2355.20;;;;;;5091447;28;20030;-75
2023/10/22 05:02:33;;;;;;;7.15;2.80;;;435.30;2355.20;;;;;;5103376;28;20032;-75
2023/10/22 05:04:59;;;;;;;6.75;1.90;;;435.50;2355.20;;;;;;5082411;28;20035;-75
2023/10/22 05:07:24;;;;;;;8.30;2.53;;;435.50;2355.20;;;;;;5088566;28;20021;-75
2023/10/22 05:09:50;;;;;;;5.45;1.50;;;435.50;2355.20;;;;;;5094664;28;20027;-75
2023/10/22 05:12:16;;;;;;;9.48;2.47;;;435.50;2355.20;;;;;;5086781;28;20431;-74
2023/10/22 05:14:42;;;;;;;6.78;2.75;;;435.60;2355.20;;;;;;5087973;28;20036;-74
2023/10/22 05:17:08;;;;;;;9.68;2.67;;;435.70;2355.20;;;;;;5090844;28;20464;-75
2023/10/22 05:19:37;;;;;;;6.68;2.05;;;435.60;2355.20;;;;;;5092793;28;20049;-74
2023/10/22 05:22:06;;;;;;;5.43;2.05;;;435.70;2355.20;;;;;;5084374;28;20025;-74
2023/10/22 05:24:32;;;;;;;4.97;1.83;;;435.70;2355.20;;;;;;5087740;28;20039;-75
2023/10/22 05:26:58;;;;;;;6.68;2.95;;;435.60;2355.20;;;;;;5085092;28;20024;-74
2023/10/22 05:29:24;;;;;;;9.68;2.85;;;435.60;2355.20;;;;;;5098059;28;20390;-74
2023/10/22 05:31:50;;;;;;;8.10;3.50;;;435.60;2355.20;;;;;;5086346;28;20028;-75
2023/10/22 05:34:16;;;;;;;8.98;3.70;;;435.60;2355.20;;;;;;5089608;28;20024;-75
2023/10/22 05:36:42;;;;;;;6.03;1.98;;;435.50;2355.20;;;;;;5094798;28;20064;-75
2023/10/22 05:39:08;;;;;;;4.32;1.63;;;435.40;2355.20;;;;;;5086482;28;20046;-75
2023/10/22 05:41:34;;;;;;;12.07;3.60;;;435.30;2355.20;;;;;;5083073;28;20017;-75
2023/10/22 05:44:02;;;;;;;9.77;2.33;;;435.50;2355.20;;;;;;5096954;28;20032;-75
2023/10/22 05:46:30;;;;;;;7.63;2.22;;;435.50;2355.20;;;;;;5082902;28;20107;-74
2023/10/22 05:48:56;;;;;;;4.28;1.70;;;435.50;2355.20;;;;;;5088838;28;20027;-76
2023/10/22 05:51:23;;;;;;;6.90;1.70;;;435.50;2355.20;;;;;;5077321;28;20032;-74
2023/10/22 05:53:49;;;;;;;10.15;2.83;;;435.60;2355.20;;;;;;5093503;28;20043;-76
2023/10/22 05:56:15;;;;;;;5.80;1.33;;;435.60;2355.20;;;;;;5093603;28;20032;-75
2023/10/22 05:58:41;;;;;;;5.53;1.50;;;435.70;2355.20;;;;;;5083542;28;20028;-74
2023/10/22 06:01:09;;;;;;;9.00;2.70;;;435.60;2355.20;;;;;;5068081;28;20043;-73
2023/10/22 06:03:35;;;;;;;8.93;2.97;;;435.60;2355.20;;;;;;5067853;28;20032;-85
2023/10/22 06:06:00;;;;;;;4.85;2.22;;;435.80;2355.20;;;;;;5090418;28;20375;-75
2023/10/22 06:08:26;;;;;;;7.47;2.42;;;435.90;2355.20;;;;;;5090432;28;20107;-78
2023/10/22 06:10:52;;;;;;;7.55;3.17;;;436.00;2355.20;;;;;;5073777;28;20024;-77
2023/10/22 06:13:18;;;;;;;9.35;3.40;;;436.00;2355.20;;;;;;5096451;28;20018;-76
2023/10/22 06:15:45;;;;;;;8.63;4.95;;;436.10;2355.20;;;;;;5096667;28;20027;-76
2023/10/22 06:18:11;;;;;;;12.13;7.03;;;436.10;2355.20;;;;;;5062109;28;20073;-77
2023/10/22 06:20:37;;;;;;;23.95;10.63;;;461.70;2380.80;;;;;;5092461;28;20055;-77
2023/10/22 06:23:04;;;;;;;17.23;7.80;;;460.80;2380.80;;;;;;5102506;28;20023;-76
2023/10/22 06:25:31;;;;;;;9.43;5.57;;;460.90;2380.80;;;;;;5093788;28;20033;-76
2023/10/22 06:27:58;;;;;;;13.77;6.97;;;461.10;2380.80;;;;;;5077040;28;20027;-77
2023/10/22 06:30:25;;;;;;;16.25;6.20;;;461.10;2380.80;;;;;;5083536;28;20504;-77
2023/10/22 06:32:58;;;;;;;11.23;4.05;;;461.30;2380.80;;;;;;5077060;28;20020;-78
2023/10/22 06:35:26;;;;;;;4.20;2.38;;;;;;;;;;5091623;28;20094;-77
2023/10/22 06:37:52;;;;;;;7.80;2.38;;;461.60;2380.80;;;;;;5067785;28;20385;-78
2023/10/22 06:40:19;;;;;;;6.35;2.63;;;486.40;2380.80;;;;;;5082530;28;20098;-78
2023/10/22 06:42:44;;;;;;;7.65;1.88;;;486.60;2380.80;;;;;;5083860;28;20032;-77
2023/10/22 06:45:10;;;;;;;8.93;2.92;;;486.70;2380.80;;;;;;5086958;28;20051;-77
2023/10/22 06:47:40;;;;;;;7.70;2.55;;;486.70;2380.80;;;;;;5095225;28;20028;-77
2023/10/22 06:50:11;;;;;;;11.30;2.40;;;486.90;2380.80;;;;;;5083700;28;20069;-77
2023/10/22 06:52:37;;;;;;;15.95;3.03;;;487.00;2380.80;;;;;;5084382;28;20744;-77
2023/10/22 06:55:03;;;;;;;9.15;2.67;;;487.20;2380.80;;;;;;5080194;28;20028;-77
2023/10/22 06:57:29;;;;;;;7.90;2.63;;;487.30;2380.80;;;;;;5068700;28;20024;-77
2023/10/22 06:59:57;;;;;;;8.98;2.75;;;512.00;2380.80;;;;;;5082729;28;20043;-78
2023/10/22 07:02:23;;;;;;;10.15;3.50;;;512.20;2380.80;;;;;;5089064;28;20432;-77
2023/10/22 07:04:56;;;;;;;9.63;3.47;;;512.30;2380.80;;;;;;5086639;28;20024;-78
2023/10/22 07:07:24;;;;;;;10.82;3.05;;;512.40;2380.80;;;;;;5084173;28;20021;-80
2023/10/22 07:09:49;;;;;;;5.75;2.10;;;512.60;2380.80;;;;;;5093653;28;20477;-77
2023/10/22 07:12:16;;;;;;;10.48;2.67;;;512.50;2380.80;;;;;;5082164;28;20108;-76
2023/10/22 07:14:42;;;;;;;8.35;2.55;;;512.60;2380.80;;;;;;5091425;28;20047;-75
2023/10/22 07:17:08;;;;;;;9.35;2.10;;;512.60;2380.80;;;;;;5095447;28;20561;-75
2023/10/22 07:19:34;;;;;;;16.33;5.10;;;512.50;2380.80;;;;;;5093120;28;20103;-75
2023/10/22 07:22:01;;;;;;;6.57;2.00;;;512.60;2380.80;;;;;;5093786;28;20030;-74
2023/10/22 07:24:26;;;;;;;8.98;2.70;;;512.70;2380.80;;;;;;5092785;28;20385;-74
2023/10/22 07:26:52;;;;;;;7.47;2.40;;;537.60;2406.40;;;;;;5081567;28;20096;-74
2023/10/22 07:29:18;;;;;;;9.60;2.90;;;537.90;2406.40;;;;;;5099851;28;20358;-73
2023/10/22 07:31:46;;;;;;;11.57;4.20;;;538.00;2406.40;;;;;;5093165;28;20048;-75
2023/10/22 07:34:12;;;;;;;7.80;2.28;;;538.00;2406.40;;;;;;5094255;28;20020;-73
2023/10/22 07:36:38;;;;;;;11.00;2.78;;;538.10;2406.40;;;;;;5084992;28;20100;-74
2023/10/22 07:39:04;;;;;;;17.92;5.50;;;538.40;2406.40;;;;;;5090682;28;20013;-73
2023/10/22 07:41:29;;;;;;;10.07;3.22;;;538.50;2406.40;;;;;;5092371;28;20023;-74
2023/10/22 07:43:55;;;;;;;8.25;3.05;;;538.50;2406.40;;;;;;5097647;28;20118;-74
2023/10/22 07:46:21;;;;;;;12.35;5.35;;;563.30;2432.00;;;;;;5094020;28;20020;-74
2023/10/22 07:48:46;;;;;;;12.50;3.33;;;563.50;2432.00;;;;;;5088971;28;20027;-74
2023/10/22 07:51:19;;;;;;;8.88;2.75;;;563.50;2432.00;;;;;;5095439;28;20481;-74
2023/10/22 07:53:46;;;;;;;20.33;3.72;;;563.60;2432.00;;;;;;5089656;28;20048;-73
2023/10/22 07:56:14;;;;;;;5.88;2.30;;;563.70;2432.00;;;;;;5092865;28;20016;-72
2023/10/22 07:58:40;;;;;;;8.75;2.88;;;563.70;2432.00;;;;;;5092566;28;20027;-73
2023/10/22 08:01:06;;;;;;;18.80;6.65;;;563.70;2432.00;;;;;;5084612;28;20024;-74
2023/10/22 08:03:32;;;;;;;9.95;3.80;;;563.70;2432.00;;;;;;5100482;28;20042;-74
2023/10/22 08:06:00;;;;;;;16.55;3.28;;;563.80;2432.00;;;;;;5092155;28;20035;-74
2023/10/22 08:08:26;;;;;;;12.75;2.97;;;563.90;2432.00;;;;;;5093944;28;20022;-74
2023/10/22 08:10:57;;;;;;;6.43;2.80;;;564.00;2432.00;;;;;;5082569;28;20024;-74
2023/10/22 08:13:23;;;;;;;6.78;2.70;;;564.00;2432.00;;;;;;5077471;28;20031;-74
2023/10/22 08:15:49;;;;;;;10.57;2.78;;;588.90;2432.00;;;;;;5091594;28;20020;-74
2023/10/22 08:18:15;;;;;;;8.75;2.67;;;;;;;;;;5086394;28;20108;-74
2023/10/22 08:20:41;;;;;;;6.88;2.53;;;589.40;2355.20;;;;;;5089839;28;20028;-74
2023/10/22 08:23:07;;;;;;;11.75;3.42;;;589.50;2304.00;;;;;;5083604;28;20057;-74
2023/10/22 08:25:33;;;;;;;14.95;3.25;;;589.50;2278.40;;;;;;5097257;28;20056;-74
2023/10/22 08:27:59;;;;;;;7.82;2.45;;;589.50;2304.00;;;;;;5084975;28;20063;-74
2023/10/22 08:30:25;;;;;;;10.32;2.20;;;589.70;2252.80;;;;;;5092481;28;20056;-74
2023/10/22 08:32:51;;;;;;;9.43;2.95;;;614.50;2252.80;;;;;;5104433;28;20028;-73
2023/10/22 08:35:17;;;;;;;13.02;2.97;;;614.50;2227.20;;;;;;5092214;28;20038;-75
2023/10/22 08:37:44;;;;;;;10.05;2.80;;;589.70;2201.60;;;;;;5098758;28;20477;-74
2023/10/22 08:40:10;;;;;;;10.63;3.03;;;589.70;2252.80;;;;;;5088465;28;20020;-74
2023/10/22 08:42:36;;;;;;;8.57;2.85;;;589.60;2278.40;;;;;;5105096;28;20030;-74
2023/10/22 08:45:07;;;;;;;10.57;2.95;;;589.40;2278.40;;;;;;5093493;28;20036;-75
2023/10/22 08:47:36;;;;;;;12.75;3.75;;;589.40;2304.00;;;;;;5097198;28;20031;-74
2023/10/22 08:50:03;;;;;;;16.80;3.42;;;589.30;2304.00;;;;;;5089273;28;20055;-74
2023/10/22 08:52:29;;;;;;;8.80;3.05;;;589.30;2304.00;;;;;;5091792;28;20048;-74
2023/10/22 08:54:55;;;;;;;10.32;2.90;;;589.20;2329.60;;;;;;5091369;28;20042;-75
2023/10/22 08:57:23;;;;;;;12.90;3.28;;;589.30;2329.60;;;;;;5099230;28;20024;-74
2023/10/22 08:59:49;;;;;;;9.57;2.80;;;589.60;2304.00;;;;;;5084960;28;20020;-71
2023/10/22 09:02:36;;;;;;;13.68;2.55;;;614.50;2278.40;;;;;;5086897;28;20020;-75
2023/10/22 09:05:02;;;;;;;11.60;3.05;;;614.80;2252.80;;;;;;5086758;28;20047;-73
2023/10/22 09:07:46;;;;;;;8.82;2.83;;;;;;;;;;5082158;28;20032;-74
2023/10/22 09:10:23;;;;;;;11.30;2.60;;;;;;;;;;5082223;28;20032;-74
2023/10/22 09:12:49;;;;;;;6.22;2.28;;;640.20;2073.60;;;;;;5085314;28;20051;-76
2023/10/22 09:15:15;;;;;;;8.60;2.83;;;;;;;;;;5079355;28;20020;-75
2023/10/22 09:17:42;;;;;;;9.45;3.08;;;640.90;1971.20;;;;;;5084620;28;20022;-76
2023/10/22 09:20:21;;;;;;;9.75;3.03;;;665.70;1945.60;;;;;;5077471;28;20032;-75
2023/10/22 09:22:48;;;;;;;10.05;3.40;;;666.20;1894.40;;;;;;5078534;28;20028;-75
2023/10/22 09:25:16;;;;;;;14.80;3.92;;;691.20;1868.80;;;;;;5069751;28;20048;-74
2023/10/22 09:27:42;;;;;;;8.55;3.22;;;691.30;1792.00;;;;;;5079894;28;20054;-74
2023/10/22 09:30:08;;;;;;;8.85;2.90;;;691.40;1740.80;;;;;;5086738;28;20139;-74
2023/10/22 09:32:33;;;;;;;7.63;2.50;;;691.60;1740.80;;;;;;5104557;28;20028;-74
2023/10/22 09:35:13;;;;;;;10.43;3.00;;;691.90;1689.60;;;;;;5084317;28;20017;-74
2023/10/22 09:37:50;;;;;;;21.92;4.57;;;692.10;1638.40;;;;;;5076394;28;20035;-74
2023/10/22 09:40:19;;;;;;;11.57;4.28;;;716.90;1638.40;;;;;;5080601;28;20017;-74
2023/10/22 09:42:49;;;;;;;13.57;2.83;;;717.10;1587.20;;;;;;5090289;28;20373;-74
2023/10/22 09:45:17;;;;;;;8.35;3.17;;;716.90;1587.20;;;;;;5072794;28;20044;-75
2023/10/22 09:47:46;;;;;;;9.68;3.35;;;716.90;1587.20;;;;;;5094664;28;20020;-74
2023/10/22 09:50:18;;;;;;;8.05;2.28;;;717.20;1561.60;;;;;;5079111;28;20027;-74
2023/10/22 09:52:44;;;;;;;11.45;3.38;;;717.30;1587.20;;;;;;5093604;28;20071;-75
2023/10/22 09:55:13;;;;;;;10.77;2.65;;;717.40;1587.20;;;;;;5086542;28;20052;-74
2023/10/22 09:57:40;;;;;;;9.63;3.28;;;717.60;1536.00;;;;;;5092107;28;20016;-74
2023/10/22 10:00:12;;;;;;;7.47;2.50;;;742.40;1561.60;;;;;;5097299;28;20022;-75
2023/10/22 10:02:42;;;;;;;8.73;3.17;;;742.60;1536.00;;;;;;5090981;28;20016;-76
2023/10/22 10:05:12;;;;;;;13.35;3.22;;;742.60;1536.00;;;;;;5097716;28;20031;-76
2023/10/22 10:07:41;;;;;;;6.47;2.92;;;742.90;1510.40;;;;;;5086339;28;20027;-74
2023/10/22 10:10:08;;;;;;;10.00;2.70;;;743.10;1510.40;;;;;;5094649;28;20103;-74
2023/10/22 10:12:36;;;;;;;7.55;3.25;;;742.80;1510.40;;;;;;5084369;28;20465;-74
2023/10/22 10:15:02;;;;;;;11.80;3.42;;;743.00;1510.40;;;;;;5093043;28;20030;-75
2023/10/22 10:17:29;;;;;;;8.50;3.40;;;742.90;1484.80;;;;;;5092263;28;20094;-74
2023/10/22 10:20:26;;;;;;;13.52;3.17;;;743.10;1484.80;;;;;;5088546;28;20067;-73
2023/10/22 10:23:19;;;;;;;7.20;2.58;;;743.30;1484.80;;;;;;5086419;28;20105;-74
2023/10/22 10:25:44;;;;;;;8.40;2.60;;;743.00;1484.80;;;;;;5088988;28;20028;-75
2023/10/22 10:28:10;;;;;;;6.53;2.35;;;743.20;1484.80;;;;;;5085452;28;20017;-75
2023/10/22 10:30:37;;;;;;;7.45;2.58;;;743.10;1484.80;;;;;;5088400;28;20028;-75
2023/10/22 10:33:04;;;;;;;10.35;2.88;;;742.50;1484.80;;;;;;5082595;28;20103;-75
2023/10/22 10:35:41;;;;;;;7.85;2.83;;;743.10;1484.80;;;;;;5084775;28;20373;-74
2023/10/22 10:38:17;;;;;;;7.93;3.08;;;743.20;1459.20;;;;;;5089626;28;20016;-74
2023/10/22 10:40:51;;;;;;;9.70;2.75;;;768.00;1459.20;;;;;;5083276;28;20519;-74
2023/10/22 10:43:18;;;;;;;9.20;3.08;;;768.10;1433.60;;;;;;5090699;28;20381;-74
2023/10/22 10:46:21;;;;;;;8.82;2.80;;;768.30;1433.60;;;;;;5084805;28;20033;-74
2023/10/22 10:48:50;;;;;;;10.93;2.60;;;768.20;1433.60;;;;;;5086432;28;20024;-75
2023/10/22 10:51:17;;;;;;;13.55;3.35;;;768.40;1408.00;;;;;;5091477;28;20036;-75
2023/10/22 10:54:02;;;;;;;6.55;2.97;;;768.60;1433.60;;;;;;5088854;28;20054;-74
2023/10/22 10:56:47;;;;;;;6.53;2.60;;;768.80;1408.00;;;;;;5092712;28;20457;-73
2023/10/22 10:59:25;;;;;;;7.87;2.90;;;768.80;1382.40;;;;;;5096346;28;20019;-74
2023/10/22 11:02:02;;;;;;;11.55;3.35;;;768.90;1382.40;;;;;;5084098;28;20020;-74
2023/10/22 11:04:29;;;;;;;9.88;3.95;;;793.60;1408.00;;;;;;5087838;28;20036;-75
2023/10/22 11:06:56;;;;;;;13.95;3.50;;;768.60;1408.00;;;;;;5090170;28;20023;-74
2023/10/22 11:09:21;;;;;;;7.20;3.13;;;768.60;1382.40;;;;;;5094422;28;20020;-74
2023/10/22 11:12:03;;;;;;;6.22;2.67;;;768.70;1382.40;;;;;;5092077;28;20107;-74
2023/10/22 11:14:34;;;;;;;9.10;3.42;;;768.90;1382.40;;;;;;5085980;28;20060;-74
2023/10/22 11:17:00;;;;;;;9.65;2.90;;;768.10;1408.00;;;;;;5095873;28;20023;-74
2023/10/22 11:19:28;;;;;;;8.60;3.63;;;743.00;1408.00;;;;;;5089598;28;20059;-74
2023/10/22 11:21:55;;;;;;;12.82;3.75;;;742.60;1664.00;;;;;;5086361;28;20495;-74
2023/10/22 11:24:30;;;;;;;6.15;2.65;;;742.60;1484.80;;;;;;5085785;28;20051;-73
2023/10/22 11:27:05;;;;;;;7.13;2.90;;;717.70;1459.20;;;;;;5093341;28;20047;-72
2023/10/22 11:29:50;;;;;;;8.88;2.72;;;717.40;1484.80;;;;;;5084334;28;20085;-74
2023/10/22 11:32:21;;;;;;;11.38;3.10;;;717.30;1510.40;;;;;;5105663;28;20031;-78
2023/10/22 11:34:51;;;;;;;10.93;3.00;;;716.90;1484.80;;;;;;5088773;28;20046;-75
2023/10/22 11:37:41;;;;;;;13.48;3.58;;;717.10;1510.40;;;;;;5075179;28;20394;-75
2023/10/22 11:40:30;;;;;;;11.95;3.00;;;717.00;1510.40;;;;;;5084923;28;20024;-75
2023/10/22 11:43:00;;;;;;;7.63;2.70;;;717.00;1536.00;;;;;;5100552;28;20038;-75
2023/10/22 11:45:30;;;;;;;9.65;2.80;;;716.90;1536.00;;;;;;5090655;28;20081;-75
2023/10/22 11:48:12;;;;;;;7.32;2.75;;;717.10;1536.00;;;;;;5091363;28;20076;-75
2023/10/22 11:50:38;;;;;;;6.60;2.30;;;716.90;1561.60;;;;;;5069923;28;20035;-75
2023/10/22 11:53:03;;;;;;;7.15;2.15;;;716.80;1561.60;;;;;;5076734;28;20044;-75
2023/10/22 11:55:30;;;;;;;9.27;2.45;;;716.80;1561.60;;;;;;5084092;28;20039;-75
2023/10/22 11:57:56;;;;;;;8.55;2.92;;;692.10;1561.60;;;;;;5090506;28;20373;-75
2023/10/22 12:00:21;;;;;;;6.55;2.70;;;692.10;1561.60;;;;;;5100612;28;20154;-75
2023/10/22 12:02:47;;;;;;;9.48;2.63;;;691.90;1587.20;;;;;;5095405;28;20040;-75
2023/10/22 12:05:14;;;;;;;13.43;2.55;;;691.80;1612.80;;;;;;5080556;28;20043;-75
2023/10/22 12:07:40;;;;;;;10.00;2.83;;;691.80;1612.80;;;;;;5072569;28;20024;-75
2023/10/22 12:10:06;;;;;;;11.05;2.70;;;691.60;1612.80;;;;;;5091034;28;20028;-75
2023/10/22 12:12:33;;;;;;;8.98;2.63;;;691.50;1612.80;;;;;;5100079;28;20035;-75
2023/10/22 12:14:59;;;;;;;8.50;2.50;;;691.50;1612.80;;;;;;5091442;28;20079;-75
2023/10/22 12:17:25;;;;;;;8.88;3.33;;;691.40;1638.40;;;;;;5089962;28;20473;-77
2023/10/22 12:19:50;;;;;;;7.45;2.65;;;691.30;1689.60;;;;;;5095195;28;20035;-75